sensor_id;sensor_type;location;lat;lon;timestamp;P1;durP1;ratioP1;P2;durP2;ratioP2
25758;SDS011;13604;52.496;13.456;2023-02-28T00:01:03;9.48;;;4.10;;
25758;SDS011;13604;52.496;13.456;2023-02-28T00:03:29;8.05;;;3.47;;
25758;SDS011;13604;52.496;13.456;2023-02-28T00:05:54;8.20;;;3.13;;
25758;SDS011;13604;52.496;13.456;2023-02-28T00:08:20;7.47;;;3.30;;
25758;SDS011;13604;52.496;13.456;2023-02-28T00:10:45;9.05;;;3.50;;
25758;SDS011;13604;52.496;13.456;2023-02-28T00:13:10;7.13;;;3.50;;
25758;SDS011;13604;52.496;13.456;2023-02-28T00:15:35;10.43;;;3.90;;
25758;SDS011;13604;52.496;13.456;2023-02-28T00:18:01;9.25;;;3.72;;
25758;SDS011;13604;52.496;13.456;2023-02-28T00:20:27;9.98;;;3.97;;
25758;SDS011;13604;52.496;13.456;2023-02-28T00:22:53;6.40;;;3.58;;
25758;SDS011;13604;52.496;13.456;2023-02-28T00:25:20;6.90;;;3.38;;
25758;SDS011;13604;52.496;13.456;2023-02-28T00:27:47;11.45;;;3.63;;
25758;SDS011;13604;52.496;13.456;2023-02-28T00:30:14;10.65;;;3.92;;
25758;SDS011;13604;52.496;13.456;2023-02-28T00:32:41;7.80;;;3.78;;
25758;SDS011;13604;52.496;13.456;2023-02-28T00:35:07;9.27;;;4.30;;
25758;SDS011;13604;52.496;13.456;2023-02-28T00:37:32;6.70;;;3.63;;
25758;SDS011;13604;52.496;13.456;2023-02-28T00:39:59;11.25;;;3.78;;
25758;SDS011;13604;52.496;13.456;2023-02-28T00:42:24;10.73;;;4.22;;
25758;SDS011;13604;52.496;13.456;2023-02-28T00:44:50;10.38;;;4.63;;
25758;SDS011;13604;52.496;13.456;2023-02-28T00:47:16;8.20;;;4.05;;
25758;SDS011;13604;52.496;13.456;2023-02-28T00:49:41;10.60;;;4.60;;
25758;SDS011;13604;52.496;13.456;2023-02-28T00:52:07;7.72;;;4.03;;
25758;SDS011;13604;52.496;13.456;2023-02-28T00:54:32;10.93;;;4.10;;
25758;SDS011;13604;52.496;13.456;2023-02-28T00:56:58;7.85;;;3.95;;
25758;SDS011;13604;52.496;13.456;2023-02-28T00:59:24;8.85;;;3.92;;
25758;SDS011;13604;52.496;13.456;2023-02-28T01:01:49;8.82;;;4.15;;
25758;SDS011;13604;52.496;13.456;2023-02-28T01:04:15;8.13;;;4.43;;
25758;SDS011;13604;52.496;13.456;2023-02-28T01:06:40;11.70;;;4.38;;
25758;SDS011;13604;52.496;13.456;2023-02-28T01:09:06;11.55;;;4.93;;
25758;SDS011;13604;52.496;13.456;2023-02-28T01:11:32;10.30;;;4.72;;
25758;SDS011;13604;52.496;13.456;2023-02-28T01:13:58;10.05;;;4.53;;
25758;SDS011;13604;52.496;13.456;2023-02-28T01:16:23;10.38;;;4.50;;
25758;SDS011;13604;52.496;13.456;2023-02-28T01:18:49;9.15;;;4.55;;
25758;SDS011;13604;52.496;13.456;2023-02-28T01:21:15;8.38;;;4.45;;
25758;SDS011;13604;52.496;13.456;2023-02-28T01:23:42;9.75;;;4.22;;
25758;SDS011;13604;52.496;13.456;2023-02-28T01:26:08;9.63;;;4.40;;
25758;SDS011;13604;52.496;13.456;2023-02-28T01:28:36;9.50;;;4.32;;
25758;SDS011;13604;52.496;13.456;2023-02-28T01:31:02;11.55;;;5.03;;
25758;SDS011;13604;52.496;13.456;2023-02-28T01:33:27;9.25;;;4.28;;
25758;SDS011;13604;52.496;13.456;2023-02-28T01:35:59;10.55;;;4.72;;
25758;SDS011;13604;52.496;13.456;2023-02-28T01:38:25;11.38;;;4.68;;
25758;SDS011;13604;52.496;13.456;2023-02-28T01:40:51;11.18;;;4.63;;
25758;SDS011;13604;52.496;13.456;2023-02-28T01:43:20;10.20;;;4.80;;
25758;SDS011;13604;52.496;13.456;2023-02-28T01:45:47;13.40;;;4.75;;
25758;SDS011;13604;52.496;13.456;2023-02-28T01:48:13;13.93;;;5.03;;
25758;SDS011;13604;52.496;13.456;2023-02-28T01:50:39;8.57;;;4.70;;
25758;SDS011;13604;52.496;13.456;2023-02-28T01:53:09;12.07;;;5.63;;
25758;SDS011;13604;52.496;13.456;2023-02-28T01:55:37;10.85;;;4.85;;
25758;SDS011;13604;52.496;13.456;2023-02-28T01:58:04;11.95;;;5.03;;
25758;SDS011;13604;52.496;13.456;2023-02-28T02:00:32;11.98;;;5.70;;
25758;SDS011;13604;52.496;13.456;2023-02-28T02:03:05;9.77;;;4.80;;
25758;SDS011;13604;52.496;13.456;2023-02-28T02:05:34;8.93;;;4.70;;
25758;SDS011;13604;52.496;13.456;2023-02-28T02:08:03;9.93;;;4.93;;
25758;SDS011;13604;52.496;13.456;2023-02-28T02:10:31;13.55;;;5.50;;
25758;SDS011;13604;52.496;13.456;2023-02-28T02:13:34;10.73;;;5.25;;
25758;SDS011;13604;52.496;13.456;2023-02-28T02:16:20;11.38;;;5.03;;
25758;SDS011;13604;52.496;13.456;2023-02-28T02:19:04;12.85;;;5.28;;
25758;SDS011;13604;52.496;13.456;2023-02-28T02:22:11;16.45;;;6.03;;
25758;SDS011;13604;52.496;13.456;2023-02-28T02:25:10;15.18;;;6.20;;
25758;SDS011;13604;52.496;13.456;2023-02-28T02:31:20;13.95;;;6.50;;
25758;SDS011;13604;52.496;13.456;2023-02-28T02:34:07;12.23;;;5.97;;
25758;SDS011;13604;52.496;13.456;2023-02-28T02:39:56;15.32;;;6.30;;
25758;SDS011;13604;52.496;13.456;2023-02-28T02:42:31;15.40;;;6.57;;
25758;SDS011;13604;52.496;13.456;2023-02-28T02:47:52;15.20;;;6.30;;
25758;SDS011;13604;52.496;13.456;2023-02-28T02:50:29;13.00;;;6.07;;
25758;SDS011;13604;52.496;13.456;2023-02-28T02:53:02;13.10;;;6.35;;
25758;SDS011;13604;52.496;13.456;2023-02-28T02:55:31;10.43;;;5.68;;
25758;SDS011;13604;52.496;13.456;2023-02-28T02:58:03;11.27;;;6.13;;
25758;SDS011;13604;52.496;13.456;2023-02-28T03:00:31;12.27;;;5.40;;
25758;SDS011;13604;52.496;13.456;2023-02-28T03:03:00;15.90;;;6.68;;
25758;SDS011;13604;52.496;13.456;2023-02-28T03:05:27;13.48;;;6.50;;
25758;SDS011;13604;52.496;13.456;2023-02-28T03:07:58;13.55;;;6.50;;
25758;SDS011;13604;52.496;13.456;2023-02-28T03:13:00;11.38;;;6.18;;
25758;SDS011;13604;52.496;13.456;2023-02-28T03:15:53;12.35;;;5.72;;
25758;SDS011;13604;52.496;13.456;2023-02-28T03:18:42;12.07;;;5.95;;
25758;SDS011;13604;52.496;13.456;2023-02-28T03:21:27;12.60;;;6.45;;
25758;SDS011;13604;52.496;13.456;2023-02-28T03:26:27;13.38;;;6.40;;
25758;SDS011;13604;52.496;13.456;2023-02-28T03:29:02;12.05;;;6.28;;
25758;SDS011;13604;52.496;13.456;2023-02-28T03:31:44;11.73;;;6.63;;
25758;SDS011;13604;52.496;13.456;2023-02-28T03:36:50;14.27;;;6.32;;
25758;SDS011;13604;52.496;13.456;2023-02-28T03:39:28;9.40;;;5.95;;
25758;SDS011;13604;52.496;13.456;2023-02-28T03:42:01;13.82;;;6.88;;
25758;SDS011;13604;52.496;13.456;2023-02-28T03:44:38;13.55;;;6.07;;
25758;SDS011;13604;52.496;13.456;2023-02-28T03:47:11;14.60;;;6.32;;
25758;SDS011;13604;52.496;13.456;2023-02-28T03:52:31;12.88;;;6.38;;
25758;SDS011;13604;52.496;13.456;2023-02-28T03:55:03;10.95;;;5.82;;
25758;SDS011;13604;52.496;13.456;2023-02-28T03:57:56;10.63;;;4.82;;
25758;SDS011;13604;52.496;13.456;2023-02-28T04:00:27;13.48;;;6.50;;
25758;SDS011;13604;52.496;13.456;2023-02-28T04:02:56;12.20;;;6.50;;
25758;SDS011;13604;52.496;13.456;2023-02-28T04:05:22;12.70;;;6.32;;
25758;SDS011;13604;52.496;13.456;2023-02-28T04:07:48;13.65;;;6.93;;
25758;SDS011;13604;52.496;13.456;2023-02-28T04:10:14;18.45;;;7.50;;
25758;SDS011;13604;52.496;13.456;2023-02-28T04:12:40;12.15;;;6.60;;
25758;SDS011;13604;52.496;13.456;2023-02-28T04:15:06;14.68;;;6.90;;
25758;SDS011;13604;52.496;13.456;2023-02-28T04:17:32;17.73;;;6.85;;
25758;SDS011;13604;52.496;13.456;2023-02-28T04:19:57;16.45;;;7.25;;
25758;SDS011;13604;52.496;13.456;2023-02-28T04:22:22;16.50;;;7.13;;
25758;SDS011;13604;52.496;13.456;2023-02-28T04:24:50;13.15;;;6.70;;
25758;SDS011;13604;52.496;13.456;2023-02-28T04:27:16;13.57;;;7.30;;
25758;SDS011;13604;52.496;13.456;2023-02-28T04:29:41;13.70;;;6.50;;
25758;SDS011;13604;52.496;13.456;2023-02-28T04:32:09;13.13;;;7.47;;
25758;SDS011;13604;52.496;13.456;2023-02-28T04:34:35;16.52;;;8.20;;
25758;SDS011;13604;52.496;13.456;2023-02-28T04:37:00;17.00;;;7.53;;
25758;SDS011;13604;52.496;13.456;2023-02-28T04:39:26;16.42;;;8.40;;
25758;SDS011;13604;52.496;13.456;2023-02-28T04:41:51;13.77;;;7.72;;
25758;SDS011;13604;52.496;13.456;2023-02-28T04:44:16;19.20;;;8.07;;
25758;SDS011;13604;52.496;13.456;2023-02-28T04:46:42;22.38;;;8.00;;
25758;SDS011;13604;52.496;13.456;2023-02-28T04:49:08;16.83;;;7.90;;
25758;SDS011;13604;52.496;13.456;2023-02-28T04:51:36;19.67;;;8.50;;
25758;SDS011;13604;52.496;13.456;2023-02-28T04:54:01;16.13;;;8.32;;
25758;SDS011;13604;52.496;13.456;2023-02-28T04:56:26;18.52;;;8.88;;
25758;SDS011;13604;52.496;13.456;2023-02-28T04:58:51;19.25;;;8.32;;
25758;SDS011;13604;52.496;13.456;2023-02-28T05:01:22;19.52;;;8.57;;
25758;SDS011;13604;52.496;13.456;2023-02-28T05:03:53;17.02;;;8.18;;
25758;SDS011;13604;52.496;13.456;2023-02-28T05:06:22;19.83;;;8.82;;
25758;SDS011;13604;52.496;13.456;2023-02-28T05:08:49;18.98;;;8.35;;
25758;SDS011;13604;52.496;13.456;2023-02-28T05:11:16;27.48;;;9.50;;
25758;SDS011;13604;52.496;13.456;2023-02-28T05:13:43;20.13;;;8.85;;
25758;SDS011;13604;52.496;13.456;2023-02-28T05:16:09;26.58;;;10.57;;
25758;SDS011;13604;52.496;13.456;2023-02-28T05:18:34;21.08;;;8.48;;
25758;SDS011;13604;52.496;13.456;2023-02-28T05:21:00;19.23;;;8.95;;
25758;SDS011;13604;52.496;13.456;2023-02-28T05:23:27;16.50;;;8.50;;
25758;SDS011;13604;52.496;13.456;2023-02-28T05:25:52;19.38;;;9.77;;
25758;SDS011;13604;52.496;13.456;2023-02-28T05:28:19;19.92;;;9.00;;
25758;SDS011;13604;52.496;13.456;2023-02-28T05:30:44;17.27;;;8.77;;
25758;SDS011;13604;52.496;13.456;2023-02-28T05:33:10;17.52;;;8.40;;
25758;SDS011;13604;52.496;13.456;2023-02-28T05:35:37;16.70;;;8.65;;
25758;SDS011;13604;52.496;13.456;2023-02-28T05:38:04;19.33;;;9.82;;
25758;SDS011;13604;52.496;13.456;2023-02-28T05:40:29;18.42;;;9.02;;
25758;SDS011;13604;52.496;13.456;2023-02-28T05:42:54;20.83;;;9.15;;
25758;SDS011;13604;52.496;13.456;2023-02-28T05:45:19;18.40;;;9.32;;
25758;SDS011;13604;52.496;13.456;2023-02-28T05:47:45;20.98;;;9.43;;
25758;SDS011;13604;52.496;13.456;2023-02-28T05:50:10;18.52;;;9.30;;
25758;SDS011;13604;52.496;13.456;2023-02-28T05:52:36;17.85;;;9.30;;
25758;SDS011;13604;52.496;13.456;2023-02-28T05:55:02;20.75;;;9.65;;
25758;SDS011;13604;52.496;13.456;2023-02-28T05:57:28;21.80;;;10.50;;
25758;SDS011;13604;52.496;13.456;2023-02-28T05:59:53;18.95;;;8.75;;
25758;SDS011;13604;52.496;13.456;2023-02-28T06:02:18;22.88;;;10.07;;
25758;SDS011;13604;52.496;13.456;2023-02-28T06:04:44;20.48;;;10.13;;
25758;SDS011;13604;52.496;13.456;2023-02-28T06:07:10;21.65;;;9.98;;
25758;SDS011;13604;52.496;13.456;2023-02-28T06:09:35;19.92;;;10.52;;
25758;SDS011;13604;52.496;13.456;2023-02-28T06:12:02;27.13;;;10.82;;
25758;SDS011;13604;52.496;13.456;2023-02-28T06:14:30;22.13;;;10.70;;
25758;SDS011;13604;52.496;13.456;2023-02-28T06:16:56;22.23;;;10.30;;
25758;SDS011;13604;52.496;13.456;2023-02-28T06:19:21;21.90;;;11.20;;
25758;SDS011;13604;52.496;13.456;2023-02-28T06:21:49;20.50;;;10.27;;
25758;SDS011;13604;52.496;13.456;2023-02-28T06:24:15;21.08;;;10.63;;
25758;SDS011;13604;52.496;13.456;2023-02-28T06:26:40;23.73;;;10.95;;
25758;SDS011;13604;52.496;13.456;2023-02-28T06:29:06;22.77;;;11.05;;
25758;SDS011;13604;52.496;13.456;2023-02-28T06:31:32;21.70;;;10.30;;
25758;SDS011;13604;52.496;13.456;2023-02-28T06:33:57;21.90;;;11.45;;
25758;SDS011;13604;52.496;13.456;2023-02-28T06:36:23;20.55;;;10.57;;
25758;SDS011;13604;52.496;13.456;2023-02-28T06:38:48;23.40;;;11.02;;
25758;SDS011;13604;52.496;13.456;2023-02-28T06:41:19;23.83;;;11.00;;
25758;SDS011;13604;52.496;13.456;2023-02-28T06:43:44;24.83;;;10.90;;
25758;SDS011;13604;52.496;13.456;2023-02-28T06:46:11;25.15;;;10.90;;
25758;SDS011;13604;52.496;13.456;2023-02-28T06:48:38;20.50;;;10.73;;
25758;SDS011;13604;52.496;13.456;2023-02-28T06:51:05;20.00;;;10.95;;
25758;SDS011;13604;52.496;13.456;2023-02-28T06:53:31;17.42;;;10.18;;
25758;SDS011;13604;52.496;13.456;2023-02-28T06:55:57;16.85;;;8.90;;
25758;SDS011;13604;52.496;13.456;2023-02-28T06:58:22;18.95;;;9.63;;
25758;SDS011;13604;52.496;13.456;2023-02-28T07:00:49;16.13;;;8.55;;
25758;SDS011;13604;52.496;13.456;2023-02-28T07:03:16;19.40;;;9.38;;
25758;SDS011;13604;52.496;13.456;2023-02-28T07:05:42;16.42;;;8.50;;
25758;SDS011;13604;52.496;13.456;2023-02-28T07:08:08;15.65;;;7.95;;
25758;SDS011;13604;52.496;13.456;2023-02-28T07:10:33;19.42;;;7.88;;
25758;SDS011;13604;52.496;13.456;2023-02-28T07:12:59;17.42;;;8.80;;
25758;SDS011;13604;52.496;13.456;2023-02-28T07:15:24;14.27;;;7.25;;
25758;SDS011;13604;52.496;13.456;2023-02-28T07:17:50;12.55;;;7.72;;
25758;SDS011;13604;52.496;13.456;2023-02-28T07:20:15;17.08;;;8.40;;
25758;SDS011;13604;52.496;13.456;2023-02-28T07:22:41;13.73;;;7.03;;
25758;SDS011;13604;52.496;13.456;2023-02-28T07:25:06;11.70;;;7.22;;
25758;SDS011;13604;52.496;13.456;2023-02-28T07:27:32;14.60;;;6.90;;
25758;SDS011;13604;52.496;13.456;2023-02-28T07:29:59;11.35;;;6.78;;
25758;SDS011;13604;52.496;13.456;2023-02-28T07:32:26;17.52;;;7.38;;
25758;SDS011;13604;52.496;13.456;2023-02-28T07:34:52;12.65;;;6.57;;
25758;SDS011;13604;52.496;13.456;2023-02-28T07:37:17;13.38;;;6.88;;
25758;SDS011;13604;52.496;13.456;2023-02-28T07:39:42;15.80;;;6.32;;
25758;SDS011;13604;52.496;13.456;2023-02-28T07:42:08;14.75;;;6.72;;
25758;SDS011;13604;52.496;13.456;2023-02-28T07:44:36;14.07;;;7.53;;
25758;SDS011;13604;52.496;13.456;2023-02-28T07:47:05;14.55;;;6.65;;
25758;SDS011;13604;52.496;13.456;2023-02-28T07:49:34;11.77;;;6.07;;
25758;SDS011;13604;52.496;13.456;2023-02-28T07:52:06;12.25;;;6.00;;
25758;SDS011;13604;52.496;13.456;2023-02-28T07:54:32;14.73;;;6.60;;
25758;SDS011;13604;52.496;13.456;2023-02-28T07:56:58;17.17;;;6.60;;
25758;SDS011;13604;52.496;13.456;2023-02-28T07:59:23;11.63;;;6.03;;
25758;SDS011;13604;52.496;13.456;2023-02-28T08:01:49;12.15;;;6.35;;
25758;SDS011;13604;52.496;13.456;2023-02-28T08:04:15;9.85;;;5.50;;
25758;SDS011;13604;52.496;13.456;2023-02-28T08:06:41;13.80;;;5.68;;
25758;SDS011;13604;52.496;13.456;2023-02-28T08:09:07;9.75;;;4.93;;
25758;SDS011;13604;52.496;13.456;2023-02-28T08:11:32;8.70;;;4.55;;
25758;SDS011;13604;52.496;13.456;2023-02-28T08:13:57;8.75;;;4.30;;
25758;SDS011;13604;52.496;13.456;2023-02-28T08:16:22;9.65;;;4.68;;
25758;SDS011;13604;52.496;13.456;2023-02-28T08:18:51;15.07;;;6.18;;
25758;SDS011;13604;52.496;13.456;2023-02-28T08:21:18;11.70;;;5.20;;
25758;SDS011;13604;52.496;13.456;2023-02-28T08:23:43;7.97;;;4.05;;
25758;SDS011;13604;52.496;13.456;2023-02-28T08:26:10;13.93;;;4.30;;
25758;SDS011;13604;52.496;13.456;2023-02-28T08:28:36;9.73;;;4.63;;
25758;SDS011;13604;52.496;13.456;2023-02-28T08:31:01;8.13;;;3.90;;
25758;SDS011;13604;52.496;13.456;2023-02-28T08:33:32;7.32;;;3.70;;
25758;SDS011;13604;52.496;13.456;2023-02-28T08:35:58;10.07;;;3.65;;
25758;SDS011;13604;52.496;13.456;2023-02-28T08:38:23;9.73;;;3.33;;
25758;SDS011;13604;52.496;13.456;2023-02-28T08:40:49;9.70;;;4.05;;
25758;SDS011;13604;52.496;13.456;2023-02-28T08:43:14;12.30;;;4.03;;
25758;SDS011;13604;52.496;13.456;2023-02-28T08:45:39;9.48;;;3.60;;
25758;SDS011;13604;52.496;13.456;2023-02-28T08:48:05;6.28;;;3.20;;
25758;SDS011;13604;52.496;13.456;2023-02-28T08:50:30;6.97;;;3.88;;
25758;SDS011;13604;52.496;13.456;2023-02-28T08:52:55;13.77;;;3.58;;
25758;SDS011;13604;52.496;13.456;2023-02-28T08:55:21;6.90;;;3.13;;
25758;SDS011;13604;52.496;13.456;2023-02-28T08:57:46;11.30;;;3.47;;
25758;SDS011;13604;52.496;13.456;2023-02-28T09:00:12;7.43;;;3.30;;
25758;SDS011;13604;52.496;13.456;2023-02-28T09:02:39;7.15;;;3.22;;
25758;SDS011;13604;52.496;13.456;2023-02-28T09:05:05;5.28;;;3.08;;
25758;SDS011;13604;52.496;13.456;2023-02-28T09:07:30;4.93;;;2.40;;
25758;SDS011;13604;52.496;13.456;2023-02-28T09:09:56;5.30;;;2.63;;
25758;SDS011;13604;52.496;13.456;2023-02-28T09:12:26;5.43;;;2.65;;
25758;SDS011;13604;52.496;13.456;2023-02-28T09:14:52;6.07;;;2.30;;
25758;SDS011;13604;52.496;13.456;2023-02-28T09:17:18;5.45;;;2.47;;
25758;SDS011;13604;52.496;13.456;2023-02-28T09:19:44;5.65;;;2.40;;
25758;SDS011;13604;52.496;13.456;2023-02-28T09:22:10;5.63;;;2.53;;
25758;SDS011;13604;52.496;13.456;2023-02-28T09:24:36;4.60;;;1.80;;
25758;SDS011;13604;52.496;13.456;2023-02-28T09:27:02;3.35;;;2.00;;
25758;SDS011;13604;52.496;13.456;2023-02-28T09:29:27;7.07;;;2.80;;
25758;SDS011;13604;52.496;13.456;2023-02-28T09:31:53;5.93;;;2.65;;
25758;SDS011;13604;52.496;13.456;2023-02-28T09:34:18;4.47;;;2.88;;
25758;SDS011;13604;52.496;13.456;2023-02-28T09:36:44;4.07;;;2.53;;
25758;SDS011;13604;52.496;13.456;2023-02-28T09:39:09;4.80;;;2.03;;
25758;SDS011;13604;52.496;13.456;2023-02-28T09:41:42;4.50;;;2.20;;
25758;SDS011;13604;52.496;13.456;2023-02-28T09:44:37;6.05;;;2.45;;
25758;SDS011;13604;52.496;13.456;2023-02-28T09:47:13;7.82;;;2.22;;
25758;SDS011;13604;52.496;13.456;2023-02-28T09:49:55;6.88;;;2.67;;
25758;SDS011;13604;52.496;13.456;2023-02-28T09:52:25;7.03;;;2.75;;
25758;SDS011;13604;52.496;13.456;2023-02-28T09:54:55;4.35;;;2.40;;
25758;SDS011;13604;52.496;13.456;2023-02-28T09:57:39;3.92;;;2.30;;
25758;SDS011;13604;52.496;13.456;2023-02-28T10:05:15;3.17;;;2.13;;
25758;SDS011;13604;52.496;13.456;2023-02-28T10:07:55;3.55;;;1.90;;
25758;SDS011;13604;52.496;13.456;2023-02-28T10:10:26;3.17;;;2.10;;
25758;SDS011;13604;52.496;13.456;2023-02-28T10:12:56;4.63;;;2.15;;
25758;SDS011;13604;52.496;13.456;2023-02-28T10:15:25;3.10;;;1.95;;
25758;SDS011;13604;52.496;13.456;2023-02-28T10:17:57;2.60;;;1.95;;
25758;SDS011;13604;52.496;13.456;2023-02-28T10:20:25;3.78;;;1.90;;
25758;SDS011;13604;52.496;13.456;2023-02-28T10:23:40;3.63;;;2.08;;
25758;SDS011;13604;52.496;13.456;2023-02-28T10:25:59;4.90;;;2.20;;
25758;SDS011;13604;52.496;13.456;2023-02-28T10:30:57;3.30;;;1.90;;
25758;SDS011;13604;52.496;13.456;2023-02-28T10:33:24;5.28;;;1.92;;
25758;SDS011;13604;52.496;13.456;2023-02-28T10:35:57;3.28;;;2.08;;
25758;SDS011;13604;52.496;13.456;2023-02-28T10:38:27;4.15;;;2.10;;
25758;SDS011;13604;52.496;13.456;2023-02-28T10:41:05;2.45;;;1.83;;
25758;SDS011;13604;52.496;13.456;2023-02-28T10:43:35;3.00;;;2.20;;
25758;SDS011;13604;52.496;13.456;2023-02-28T10:46:03;5.68;;;2.65;;
25758;SDS011;13604;52.496;13.456;2023-02-28T10:51:04;3.90;;;2.03;;
25758;SDS011;13604;52.496;13.456;2023-02-28T10:56:15;3.83;;;2.30;;
25758;SDS011;13604;52.496;13.456;2023-02-28T10:58:56;5.05;;;2.63;;
25758;SDS011;13604;52.496;13.456;2023-02-28T11:03:54;5.03;;;2.58;;
25758;SDS011;13604;52.496;13.456;2023-02-28T11:06:28;6.07;;;2.65;;
25758;SDS011;13604;52.496;13.456;2023-02-28T11:08:56;3.97;;;2.53;;
25758;SDS011;13604;52.496;13.456;2023-02-28T11:11:24;5.38;;;2.45;;
25758;SDS011;13604;52.496;13.456;2023-02-28T11:13:53;3.70;;;2.42;;
25758;SDS011;13604;52.496;13.456;2023-02-28T11:16:21;6.85;;;3.53;;
25758;SDS011;13604;52.496;13.456;2023-02-28T11:18:48;4.40;;;3.20;;
25758;SDS011;13604;52.496;13.456;2023-02-28T11:21:34;5.32;;;3.47;;
25758;SDS011;13604;52.496;13.456;2023-02-28T11:24:06;4.47;;;2.90;;
25758;SDS011;13604;52.496;13.456;2023-02-28T11:26:47;4.43;;;2.97;;
25758;SDS011;13604;52.496;13.456;2023-02-28T11:29:18;5.68;;;2.90;;
25758;SDS011;13604;52.496;13.456;2023-02-28T11:34:33;5.50;;;3.40;;
25758;SDS011;13604;52.496;13.456;2023-02-28T11:37:00;5.22;;;2.95;;
25758;SDS011;13604;52.496;13.456;2023-02-28T11:39:29;5.55;;;3.45;;
25758;SDS011;13604;52.496;13.456;2023-02-28T11:42:14;6.85;;;3.40;;
25758;SDS011;13604;52.496;13.456;2023-02-28T11:44:57;5.43;;;3.38;;
25758;SDS011;13604;52.496;13.456;2023-02-28T11:50:39;6.88;;;3.65;;
25758;SDS011;13604;52.496;13.456;2023-02-28T11:53:29;5.30;;;3.00;;
25758;SDS011;13604;52.496;13.456;2023-02-28T12:05:14;4.20;;;3.30;;
25758;SDS011;13604;52.496;13.456;2023-02-28T12:07:58;6.30;;;2.97;;
25758;SDS011;13604;52.496;13.456;2023-02-28T12:10:33;4.95;;;2.95;;
25758;SDS011;13604;52.496;13.456;2023-02-28T12:15:56;5.75;;;2.60;;
25758;SDS011;13604;52.496;13.456;2023-02-28T12:26:48;6.75;;;3.10;;
25758;SDS011;13604;52.496;13.456;2023-02-28T12:37:35;4.82;;;2.72;;
25758;SDS011;13604;52.496;13.456;2023-02-28T12:40:05;7.82;;;3.05;;
25758;SDS011;13604;52.496;13.456;2023-02-28T12:42:42;3.42;;;2.67;;
25758;SDS011;13604;52.496;13.456;2023-02-28T12:45:14;3.33;;;2.50;;
25758;SDS011;13604;52.496;13.456;2023-02-28T12:47:45;3.08;;;2.33;;
25758;SDS011;13604;52.496;13.456;2023-02-28T12:50:14;4.72;;;2.55;;
25758;SDS011;13604;52.496;13.456;2023-02-28T12:56:08;6.30;;;2.70;;
25758;SDS011;13604;52.496;13.456;2023-02-28T12:58:56;4.55;;;2.50;;
25758;SDS011;13604;52.496;13.456;2023-02-28T13:01:33;3.70;;;2.40;;
25758;SDS011;13604;52.496;13.456;2023-02-28T13:09:20;5.45;;;2.92;;
25758;SDS011;13604;52.496;13.456;2023-02-28T13:11:49;3.40;;;2.67;;
25758;SDS011;13604;52.496;13.456;2023-02-28T13:14:21;3.63;;;2.50;;
25758;SDS011;13604;52.496;13.456;2023-02-28T13:19:20;4.97;;;2.85;;
25758;SDS011;13604;52.496;13.456;2023-02-28T13:21:48;3.88;;;2.85;;
25758;SDS011;13604;52.496;13.456;2023-02-28T13:24:37;6.05;;;2.80;;
25758;SDS011;13604;52.496;13.456;2023-02-28T13:29:40;3.77;;;2.80;;
25758;SDS011;13604;52.496;13.456;2023-02-28T13:34:36;3.58;;;2.90;;
25758;SDS011;13604;52.496;13.456;2023-02-28T13:39:48;5.32;;;2.92;;
25758;SDS011;13604;52.496;13.456;2023-02-28T13:47:30;4.43;;;2.75;;
25758;SDS011;13604;52.496;13.456;2023-02-28T13:58:57;3.42;;;2.33;;
25758;SDS011;13604;52.496;13.456;2023-02-28T14:01:53;6.63;;;2.95;;
25758;SDS011;13604;52.496;13.456;2023-02-28T14:04:58;4.53;;;2.80;;
25758;SDS011;13604;52.496;13.456;2023-02-28T14:07:27;5.13;;;3.15;;
25758;SDS011;13604;52.496;13.456;2023-02-28T14:09:58;3.63;;;2.53;;
25758;SDS011;13604;52.496;13.456;2023-02-28T14:17:57;4.63;;;3.10;;
25758;SDS011;13604;52.496;13.456;2023-02-28T14:20:27;6.35;;;3.00;;
25758;SDS011;13604;52.496;13.456;2023-02-28T14:37:39;4.63;;;3.65;;
25758;SDS011;13604;52.496;13.456;2023-02-28T14:40:21;5.28;;;3.20;;
25758;SDS011;13604;52.496;13.456;2023-02-28T14:43:02;3.78;;;2.85;;
25758;SDS011;13604;52.496;13.456;2023-02-28T14:45:30;4.65;;;3.47;;
25758;SDS011;13604;52.496;13.456;2023-02-28T14:47:57;5.10;;;3.50;;
25758;SDS011;13604;52.496;13.456;2023-02-28T14:50:26;6.93;;;3.50;;
25758;SDS011;13604;52.496;13.456;2023-02-28T14:52:54;4.30;;;3.10;;
25758;SDS011;13604;52.496;13.456;2023-02-28T14:55:23;6.00;;;3.50;;
25758;SDS011;13604;52.496;13.456;2023-02-28T14:57:55;4.63;;;3.55;;
25758;SDS011;13604;52.496;13.456;2023-02-28T15:00:26;4.40;;;3.50;;
25758;SDS011;13604;52.496;13.456;2023-02-28T15:02:54;3.92;;;3.53;;
25758;SDS011;13604;52.496;13.456;2023-02-28T15:05:24;8.60;;;3.38;;
25758;SDS011;13604;52.496;13.456;2023-02-28T15:08:00;7.38;;;3.60;;
25758;SDS011;13604;52.496;13.456;2023-02-28T15:10:55;5.30;;;3.42;;
25758;SDS011;13604;52.496;13.456;2023-02-28T15:13:36;6.75;;;3.40;;
25758;SDS011;13604;52.496;13.456;2023-02-28T15:16:06;4.50;;;3.28;;
25758;SDS011;13604;52.496;13.456;2023-02-28T15:21:15;6.32;;;3.35;;
25758;SDS011;13604;52.496;13.456;2023-02-28T15:23:46;4.97;;;3.30;;
25758;SDS011;13604;52.496;13.456;2023-02-28T15:26:19;5.68;;;3.63;;
25758;SDS011;13604;52.496;13.456;2023-02-28T15:28:48;6.00;;;3.97;;
25758;SDS011;13604;52.496;13.456;2023-02-28T15:31:23;5.53;;;3.67;;
25758;SDS011;13604;52.496;13.456;2023-02-28T15:33:53;8.25;;;3.33;;
25758;SDS011;13604;52.496;13.456;2023-02-28T15:36:20;4.95;;;3.08;;
25758;SDS011;13604;52.496;13.456;2023-02-28T15:38:52;4.40;;;3.17;;
25758;SDS011;13604;52.496;13.456;2023-02-28T15:41:26;5.45;;;3.40;;
25758;SDS011;13604;52.496;13.456;2023-02-28T15:49:17;4.97;;;3.45;;
25758;SDS011;13604;52.496;13.456;2023-02-28T15:51:45;8.32;;;3.80;;
25758;SDS011;13604;52.496;13.456;2023-02-28T15:54:44;6.00;;;3.38;;
25758;SDS011;13604;52.496;13.456;2023-02-28T15:57:04;6.20;;;3.50;;
25758;SDS011;13604;52.496;13.456;2023-02-28T15:59:34;5.72;;;3.63;;
25758;SDS011;13604;52.496;13.456;2023-02-28T16:02:23;5.57;;;3.25;;
25758;SDS011;13604;52.496;13.456;2023-02-28T16:07:25;7.43;;;3.83;;
25758;SDS011;13604;52.496;13.456;2023-02-28T16:09:51;8.32;;;3.50;;
25758;SDS011;13604;52.496;13.456;2023-02-28T16:12:16;7.45;;;3.40;;
25758;SDS011;13604;52.496;13.456;2023-02-28T16:14:42;5.57;;;3.60;;
25758;SDS011;13604;52.496;13.456;2023-02-28T16:17:13;6.20;;;3.65;;
25758;SDS011;13604;52.496;13.456;2023-02-28T16:19:46;5.97;;;3.17;;
25758;SDS011;13604;52.496;13.456;2023-02-28T16:22:11;7.30;;;3.47;;
25758;SDS011;13604;52.496;13.456;2023-02-28T16:24:36;9.70;;;3.75;;
25758;SDS011;13604;52.496;13.456;2023-02-28T16:27:03;8.25;;;3.63;;
25758;SDS011;13604;52.496;13.456;2023-02-28T16:29:30;6.65;;;3.50;;
25758;SDS011;13604;52.496;13.456;2023-02-28T16:31:58;8.07;;;3.63;;
25758;SDS011;13604;52.496;13.456;2023-02-28T16:34:24;6.05;;;2.95;;
25758;SDS011;13604;52.496;13.456;2023-02-28T16:36:50;5.15;;;3.30;;
25758;SDS011;13604;52.496;13.456;2023-02-28T16:39:23;6.35;;;3.60;;
25758;SDS011;13604;52.496;13.456;2023-02-28T16:41:49;8.70;;;3.90;;
25758;SDS011;13604;52.496;13.456;2023-02-28T16:44:21;6.45;;;3.40;;
25758;SDS011;13604;52.496;13.456;2023-02-28T16:46:52;8.40;;;3.53;;
25758;SDS011;13604;52.496;13.456;2023-02-28T16:49:18;5.88;;;3.42;;
25758;SDS011;13604;52.496;13.456;2023-02-28T16:51:43;8.52;;;3.22;;
25758;SDS011;13604;52.496;13.456;2023-02-28T16:54:08;8.02;;;3.85;;
25758;SDS011;13604;52.496;13.456;2023-02-28T16:56:34;6.45;;;3.42;;